Dayton, OH (45427)

6:25 AM EDT on July 28, 2015 (GMT -0400)
Sinclair Dayton Campus | | Change Station
CLOSE
Current Station
Personal Weather Station
Location: Dayton, OH
Elevation: 780 ft
Nearby Weather Stations

Elev 780 ft 39.76 °N, 84.20 °W | Updated 5 seconds ago

Partly Cloudy
Partly Cloudy
73.8 °F
Feels Like 74 °F
N
0.0
Wind Variable Wind from NE
Gusts 0.0 mph

Today
High -- | Low -- °F
--% Chance of Precip.
Yesterday
High -- | Low -- °F
Precip. -- in
6:32 AM 8:54 PM
Waxing Gibbous, 88% visible
Pressure 30.00 in
Visibility 10.0 miles
Clouds Mostly Cloudy 8000 ft
Heat Index 74 °F
Dew Point 67 °F
Humidity 80%
Rainfall 0.00 in
Snow Depth Not available.
UV 0.0 out of 12
Pollen 5.80 out of 12
Air Quality Not available.
Flu Activity Not available.
METAR KDAY 280956Z 06005KT 10SM BKN080 21/19 A3002 RMK AO2 SLP157 T02060189

More Conditions Fewer Conditions

Pressure 30.00 in
Visibility 10.0 miles
Clouds Mostly Cloudy 8000 ft
Heat Index 74 °F
Dew Point 67 °F
Humidity 80%
Rainfall 0.00 in
Snow Depth Not available.
UV 0.0 out of 12
Pollen 5.80 out of 12
Air Quality Not available.
Flu Activity Not available.
METAR KDAY 280956Z 06005KT 10SM BKN080 21/19 A3002 RMK AO2 SLP157 T02060189

More Conditions Fewer Conditions

10-Day Weather Forecast

×

Almanac

Astronomy

Jul. 28, 2015 Rise Set
Actual Time
Civil Twilight
Nautical Twilight
Astronomical Twilight
Moon
Length of Visible Light
Length of Day
Tomorrow will be .
, % of the Moon is Illuminated

Today's Extremes

State Highs State Lows

Community

WunderPhotos

Upload Photos

1,841,800 photos uploaded!

WunderBlogs® & News

Nearby

Air Quality

  Air Quality AQ Index Pollutant
Not available.

Snow Depth

Station Depth Elevation

Earthquake Activity

City Distance Mag. Time & Date
Minimum magnitude displayed is 2.5.

Coastal Water Temperatures

Place Temperature

Stations

Nearby Weather Stations

Station Location Temp. Windchill Dew Point Humidity Wind Precip. Elev Updated Type